Time;durP1;ratioP1;P1;durP2;ratioP2;P2;SDS_P1;SDS_P2;PMS_P1;PMS_P2;Temp;Humidity;BMP_temperature;BMP_pressure;BME280_temperature;BME280_humidity;BME280_pressure;Samples;Min_cycle;Max_cycle;Signal;HPM_P1;HPM_P2
2021/11/29 00:02:26;;;;;;;15.35;9.38;;;;;;;;;;5092843;27;20595;-66
2021/11/29 00:04:53;;;;;;;16.40;8.88;;;;;;;;;;5088028;28;20071;-66
2021/11/29 00:07:19;;;;;;;17.23;9.75;;;;;;;;;;5089750;28;20051;-66
2021/11/29 00:09:46;;;;;;;18.50;11.43;;;;;;;;;;5093118;28;20455;-66
2021/11/29 00:12:14;;;;;;;16.30;10.20;;;;;;;;;;5089812;28;20086;-66
2021/11/29 00:14:40;;;;;;;17.90;9.60;;;;;;;;;;5088206;28;20075;-66
2021/11/29 00:17:07;;;;;;;17.25;10.68;;;;;;;;;;5089149;28;20129;-66
2021/11/29 00:19:35;;;;;;;15.00;8.57;;;;;;;;;;5091445;28;20109;-66
2021/11/29 00:22:01;;;;;;;15.77;9.55;;;;;;;;;;5090628;28;20518;-66
2021/11/29 00:24:28;;;;;;;16.02;9.60;;;;;;;;;;5094211;28;20067;-66
2021/11/29 00:26:55;;;;;;;16.30;9.60;;;;;;;;;;5091063;28;20090;-66
2021/11/29 00:29:21;;;;;;;18.42;9.50;;;;;;;;;;5092459;28;20048;-66
2021/11/29 00:31:48;;;;;;;16.40;8.88;;;;;;;;;;5090917;28;20094;-66
2021/11/29 00:34:14;;;;;;;13.02;8.77;;;;;;;;;;5089086;28;20508;-66
2021/11/29 00:36:42;;;;;;;13.73;8.38;;;;;;;;;;5091780;28;20472;-66
2021/11/29 00:39:09;;;;;;;18.52;8.95;;;;;;;;;;5089412;28;20098;-66
2021/11/29 00:41:36;;;;;;;14.25;9.15;;;;;;;;;;5089418;28;20478;-66
2021/11/29 00:44:02;;;;;;;18.60;9.60;;;;;;;;;;5088289;28;20769;-66
2021/11/29 00:46:29;;;;;;;15.50;8.95;;;;;;;;;;5092939;28;20112;-66
2021/11/29 00:48:55;;;;;;;18.65;10.02;;;;;;;;;;5091187;28;20068;-66
2021/11/29 00:51:22;;;;;;;18.63;11.27;;;;;;;;;;5097533;28;20583;-66
2021/11/29 00:53:50;;;;;;;19.42;9.48;;;;;;;;;;5090774;28;20124;-66
2021/11/29 00:56:18;;;;;;;17.17;10.63;;;;;;;;;;5090615;28;20457;-66
2021/11/29 00:58:44;;;;;;;16.25;11.13;;;;;;;;;;5072469;28;20043;-66
2021/11/29 01:01:11;;;;;;;18.05;10.05;;;;;;;;;;5093287;28;20079;-66
2021/11/29 01:03:39;;;;;;;15.30;9.45;;;;;;;;;;5089666;28;20143;-66
2021/11/29 01:06:05;;;;;;;15.93;9.13;;;;;;;;;;5090434;28;20666;-66
2021/11/29 01:08:32;;;;;;;15.95;10.02;;;;;;;;;;5089588;28;20233;-66
2021/11/29 01:11:00;;;;;;;18.30;10.60;;;;;;;;;;5089347;28;20133;-66
2021/11/29 01:13:27;;;;;;;16.02;9.73;;;;;;;;;;5092401;27;20567;-66
2021/11/29 01:15:54;;;;;;;18.80;10.63;;;;;;;;;;5094579;27;20446;-66
2021/11/29 01:18:20;;;;;;;15.23;8.63;;;;;;;;;;5092524;27;20101;-66
2021/11/29 01:20:47;;;;;;;16.25;9.40;;;;;;;;;;5094750;27;20172;-66
2021/11/29 01:23:15;;;;;;;19.83;9.27;;;;;;;;;;5088770;27;20522;-66
2021/11/29 01:25:42;;;;;;;16.40;9.57;;;;;;;;;;5091983;27;20084;-66
2021/11/29 01:28:11;;;;;;;15.18;10.07;;;;;;;;;;5092619;27;20075;-66
2021/11/29 01:30:38;;;;;;;12.90;8.38;;;;;;;;;;5096910;27;20456;-66
2021/11/29 01:33:05;;;;;;;15.75;8.63;;;;;;;;;;5092939;27;20093;-66
2021/11/29 01:35:32;;;;;;;16.50;10.32;;;;;;;;;;5093660;27;20052;-66
2021/11/29 01:37:59;;;;;;;15.02;8.77;;;;;;;;;;5093192;27;20139;-66
2021/11/29 01:40:26;;;;;;;17.33;8.82;;;;;;;;;;5100194;27;21031;-66
2021/11/29 01:43:02;;;;;;;19.13;10.10;;;;;;;;;;5090855;27;20151;-66
2021/11/29 01:45:32;;;;;;;18.63;10.43;;;;;;;;;;5096551;27;20121;-66
2021/11/29 01:47:59;;;;;;;15.55;8.82;;;;;;;;;;5093231;27;20044;-66
2021/11/29 01:50:26;;;;;;;14.40;9.35;;;;;;;;;;5094834;27;20075;-66
2021/11/29 01:52:53;;;;;;;16.05;9.60;;;;;;;;;;5091112;27;20044;-66
2021/11/29 01:55:20;;;;;;;15.38;9.30;;;;;;;;;;5092671;27;20087;-66
2021/11/29 01:57:47;;;;;;;13.95;8.88;;;;;;;;;;5093292;27;20766;-66
2021/11/29 02:00:17;;;;;;;13.27;7.70;;;;;;;;;;5097124;27;20142;-66
2021/11/29 02:02:47;;;;;;;15.13;9.25;;;;;;;;;;5089858;27;20178;-66
2021/11/29 02:05:14;;;;;;;15.40;9.80;;;;;;;;;;5092254;27;20773;-66
2021/11/29 02:07:41;;;;;;;17.23;9.07;;;;;;;;;;5091613;27;20570;-66
2021/11/29 02:10:08;;;;;;;17.00;8.55;;;;;;;;;;5098158;27;20098;-66
2021/11/29 02:12:35;;;;;;;17.35;8.93;;;;;;;;;;5091327;27;20097;-66
2021/11/29 02:15:01;;;;;;;14.95;8.40;;;;;;;;;;5091961;27;20101;-66
2021/11/29 02:17:28;;;;;;;13.98;8.65;;;;;;;;;;5094858;27;20067;-66
2021/11/29 02:19:56;;;;;;;15.52;9.30;;;;;;;;;;5100603;27;20123;-66
2021/11/29 02:22:24;;;;;;;11.40;7.50;;;;;;;;;;5091463;27;20068;-66
2021/11/29 02:24:51;;;;;;;14.02;8.55;;;;;;;;;;5091737;27;20047;-66
2021/11/29 02:27:17;;;;;;;15.27;8.80;;;;;;;;;;5091240;27;20087;-66
2021/11/29 02:29:44;;;;;;;14.32;8.20;;;;;;;;;;5097909;27;20123;-66
2021/11/29 02:32:10;;;;;;;16.77;9.75;;;;;;;;;;5089965;27;20084;-66
2021/11/29 02:34:37;;;;;;;16.33;7.60;;;;;;;;;;5088852;27;20072;-66
2021/11/29 02:37:06;;;;;;;13.93;7.50;;;;;;;;;;5090839;27;20075;-66
2021/11/29 02:39:35;;;;;;;12.25;7.60;;;;;;;;;;5076362;27;20691;-66
2021/11/29 02:42:06;;;;;;;11.25;7.80;;;;;;;;;;5089141;27;20043;-66
2021/11/29 02:44:32;;;;;;;15.55;7.97;;;;;;;;;;5090787;27;20090;-66
2021/11/29 02:46:59;;;;;;;16.35;8.23;;;;;;;;;;5093226;27;20131;-66
2021/11/29 02:49:26;;;;;;;14.18;8.18;;;;;;;;;;5092446;27;21601;-66
2021/11/29 02:51:54;;;;;;;13.50;7.43;;;;;;;;;;5092902;27;20055;-66
2021/11/29 02:54:22;;;;;;;13.57;8.15;;;;;;;;;;5087404;27;20131;-66
2021/11/29 02:56:57;;;;;;;13.10;7.85;;;;;;;;;;5093036;27;20133;-66
2021/11/29 02:59:25;;;;;;;15.68;8.60;;;;;;;;;;5092373;27;20139;-66
2021/11/29 03:01:54;;;;;;;14.50;7.97;;;;;;;;;;5089614;27;20856;-66
2021/11/29 03:04:21;;;;;;;13.40;7.90;;;;;;;;;;5088601;28;21094;-66
2021/11/29 03:06:48;;;;;;;13.43;8.13;;;;;;;;;;5088697;28;20075;-66
2021/11/29 03:09:14;;;;;;;12.98;8.05;;;;;;;;;;5094619;27;20099;-66
2021/11/29 03:11:42;;;;;;;14.82;8.57;;;;;;;;;;5093887;27;20226;-66
2021/11/29 03:14:10;;;;;;;17.00;9.07;;;;;;;;;;5091036;27;20047;-66
2021/11/29 03:16:37;;;;;;;17.17;10.13;;;;;;;;;;5091500;27;20135;-66
2021/11/29 03:19:04;;;;;;;19.80;9.68;;;;;;;;;;5091519;27;20144;-66
2021/11/29 03:21:31;;;;;;;14.45;7.43;;;;;;;;;;5092352;27;20079;-66
2021/11/29 03:24:00;;;;;;;13.30;8.45;;;;;;;;;;5092974;27;20470;-66
2021/11/29 03:26:28;;;;;;;14.70;7.60;;;;;;;;;;5091696;27;20051;-66
2021/11/29 03:28:57;;;;;;;12.45;7.63;;;;;;;;;;5088329;27;20084;-66
2021/11/29 03:31:28;;;;;;;11.77;7.88;;;;;;;;;;5088892;27;20090;-66
2021/11/29 03:33:57;;;;;;;11.27;7.25;;;;;;;;;;5087555;28;20087;-66
2021/11/29 03:36:24;;;;;;;12.30;7.20;;;;;;;;;;5087590;28;20043;-68
2021/11/29 03:38:51;;;;;;;14.57;8.00;;;;;;;;;;5086857;28;20101;-66
2021/11/29 03:41:18;;;;;;;14.55;8.38;;;;;;;;;;5086525;28;20076;-66
2021/11/29 03:43:44;;;;;;;15.93;8.85;;;;;;;;;;5085062;28;20074;-66
2021/11/29 03:46:11;;;;;;;14.10;8.82;;;;;;;;;;5087423;28;20127;-66
2021/11/29 03:48:39;;;;;;;12.70;8.20;;;;;;;;;;5086739;28;20134;-66
2021/11/29 03:51:06;;;;;;;13.50;8.00;;;;;;;;;;5084981;28;20072;-66
2021/11/29 03:53:33;;;;;;;15.35;9.02;;;;;;;;;;5086408;27;20087;-66
2021/11/29 03:56:00;;;;;;;13.88;7.10;;;;;;;;;;5086382;28;20075;-66
2021/11/29 03:58:27;;;;;;;11.88;7.50;;;;;;;;;;5088003;28;20036;-66
2021/11/29 04:00:54;;;;;;;18.58;8.85;;;;;;;;;;5087321;28;20075;-66
2021/11/29 04:03:20;;;;;;;16.95;8.93;;;;;;;;;;5087784;28;20067;-66
2021/11/29 04:05:48;;;;;;;13.48;8.27;;;;;;;;;;5088215;28;20071;-66
2021/11/29 04:08:15;;;;;;;18.77;9.50;;;;;;;;;;5088353;28;20109;-66
2021/11/29 04:10:42;;;;;;;13.35;7.90;;;;;;;;;;5087325;27;20117;-66
2021/11/29 04:13:08;;;;;;;13.27;7.97;;;;;;;;;;5086374;28;20083;-66
2021/11/29 04:15:35;;;;;;;14.18;7.40;;;;;;;;;;5086270;28;20575;-66
2021/11/29 04:18:02;;;;;;;15.43;8.50;;;;;;;;;;5084537;28;20064;-66
2021/11/29 04:20:28;;;;;;;16.40;8.25;;;;;;;;;;5086556;28;20123;-66
2021/11/29 04:22:56;;;;;;;13.93;7.65;;;;;;;;;;5088736;28;20125;-66
2021/11/29 04:25:25;;;;;;;14.77;8.73;;;;;;;;;;5086015;28;20414;-66
2021/11/29 04:27:55;;;;;;;14.95;7.75;;;;;;;;;;5087065;28;20058;-68
2021/11/29 04:30:25;;;;;;;13.50;8.60;;;;;;;;;;5086788;28;20421;-66
2021/11/29 04:32:54;;;;;;;15.30;8.98;;;;;;;;;;5087863;28;20161;-66
2021/11/29 04:35:20;;;;;;;15.98;8.30;;;;;;;;;;5089011;28;20607;-66
2021/11/29 04:37:47;;;;;;;16.63;8.50;;;;;;;;;;5088728;28;20125;-66
2021/11/29 04:40:15;;;;;;;12.50;8.85;;;;;;;;;;5088240;28;20135;-66
2021/11/29 04:42:42;;;;;;;15.73;9.25;;;;;;;;;;5087522;28;20072;-66
2021/11/29 04:45:09;;;;;;;16.50;10.13;;;;;;;;;;5084545;28;20536;-66
2021/11/29 04:47:36;;;;;;;16.67;9.15;;;;;;;;;;5088441;28;20052;-66
2021/11/29 04:50:02;;;;;;;14.70;8.43;;;;;;;;;;5091944;27;20040;-66
2021/11/29 04:52:29;;;;;;;14.55;8.68;;;;;;;;;;5091390;27;20122;-66
2021/11/29 04:54:55;;;;;;;15.65;9.45;;;;;;;;;;5091078;28;20084;-66
2021/11/29 04:57:23;;;;;;;19.02;10.20;;;;;;;;;;5091025;28;20075;-66
2021/11/29 04:59:50;;;;;;;15.95;9.55;;;;;;;;;;5093025;27;20071;-66
2021/11/29 05:02:16;;;;;;;17.33;9.18;;;;;;;;;;5092196;28;20136;-66
2021/11/29 05:04:46;;;;;;;13.55;8.45;;;;;;;;;;5091181;27;20082;-66
2021/11/29 05:07:13;;;;;;;17.02;9.05;;;;;;;;;;5092325;27;20050;-66
2021/11/29 05:09:41;;;;;;;16.02;8.50;;;;;;;;;;5091133;27;20460;-66
2021/11/29 05:12:08;;;;;;;16.55;9.95;;;;;;;;;;5091863;27;20055;-66
2021/11/29 05:14:36;;;;;;;17.73;9.10;;;;;;;;;;5091432;28;20415;-67
2021/11/29 05:17:03;;;;;;;14.38;8.32;;;;;;;;;;5089956;28;21116;-66
2021/11/29 05:19:30;;;;;;;15.25;9.32;;;;;;;;;;5089915;27;20075;-66
2021/11/29 05:21:56;;;;;;;14.18;8.13;;;;;;;;;;5075555;28;20078;-66
2021/11/29 05:24:23;;;;;;;15.20;8.63;;;;;;;;;;5090123;27;20093;-66
2021/11/29 05:26:50;;;;;;;16.00;9.27;;;;;;;;;;5092614;27;20542;-66
2021/11/29 05:29:16;;;;;;;14.88;8.60;;;;;;;;;;5091562;27;20911;-66
2021/11/29 05:31:45;;;;;;;13.73;8.30;;;;;;;;;;5091915;27;20063;-66
2021/11/29 05:34:12;;;;;;;16.38;9.25;;;;;;;;;;5091312;28;20113;-66
2021/11/29 05:36:38;;;;;;;15.02;8.73;;;;;;;;;;5091511;27;20043;-66
2021/11/29 05:39:05;;;;;;;15.65;9.27;;;;;;;;;;5092716;28;20074;-66
2021/11/29 05:41:32;;;;;;;18.17;8.57;;;;;;;;;;5092297;28;20140;-66
2021/11/29 05:43:58;;;;;;;16.67;9.77;;;;;;;;;;5090036;27;20555;-66
2021/11/29 05:46:25;;;;;;;17.75;9.75;;;;;;;;;;5091967;27;20074;-66
2021/11/29 05:48:55;;;;;;;16.40;9.30;;;;;;;;;;5090567;27;20125;-66
2021/11/29 05:51:22;;;;;;;15.45;8.38;;;;;;;;;;5090124;27;20079;-66
2021/11/29 05:53:49;;;;;;;19.55;9.95;;;;;;;;;;5089458;28;20052;-66
2021/11/29 05:56:16;;;;;;;16.17;9.10;;;;;;;;;;5093468;27;20126;-66
2021/11/29 05:58:43;;;;;;;15.05;8.73;;;;;;;;;;5090990;27;20124;-66
2021/11/29 06:01:10;;;;;;;18.40;10.57;;;;;;;;;;5091023;27;20093;-66
2021/11/29 06:03:37;;;;;;;16.67;8.82;;;;;;;;;;5091036;28;20072;-66
2021/11/29 06:06:05;;;;;;;19.95;10.88;;;;;;;;;;5090949;28;20599;-66
2021/11/29 06:08:31;;;;;;;17.30;9.02;;;;;;;;;;5090921;27;20131;-66
2021/11/29 06:10:58;;;;;;;20.00;11.00;;;;;;;;;;5091202;27;20113;-66
2021/11/29 06:13:25;;;;;;;21.67;10.70;;;;;;;;;;5090052;27;20047;-66
2021/11/29 06:15:51;;;;;;;19.20;9.65;;;;;;;;;;5090658;28;21123;-66
2021/11/29 06:18:18;;;;;;;18.98;10.05;;;;;;;;;;5091286;27;20079;-66
2021/11/29 06:20:44;;;;;;;18.83;9.23;;;;;;;;;;5092309;27;20071;-66
2021/11/29 06:23:12;;;;;;;16.02;9.50;;;;;;;;;;5091461;28;20052;-66
2021/11/29 06:25:39;;;;;;;17.45;9.80;;;;;;;;;;5091291;27;20121;-66
2021/11/29 06:28:06;;;;;;;15.60;8.43;;;;;;;;;;5089122;27;20107;-66
2021/11/29 06:30:33;;;;;;;18.25;8.50;;;;;;;;;;5091216;27;20044;-66
2021/11/29 06:33:00;;;;;;;15.38;8.43;;;;;;;;;;5089790;28;20082;-66
2021/11/29 06:35:26;;;;;;;14.48;8.57;;;;;;;;;;5091449;27;20064;-66
2021/11/29 06:37:57;;;;;;;18.75;8.98;;;;;;;;;;5089244;28;20044;-66
2021/11/29 06:40:25;;;;;;;24.67;9.80;;;;;;;;;;5090997;27;20153;-66
2021/11/29 06:42:53;;;;;;;14.77;9.00;;;;;;;;;;5089808;27;20080;-66
2021/11/29 06:45:19;;;;;;;25.42;9.30;;;;;;;;;;5090571;27;20486;-66
2021/11/29 06:47:47;;;;;;;21.58;9.00;;;;;;;;;;5088748;27;20083;-66
2021/11/29 06:50:14;;;;;;;15.93;7.70;;;;;;;;;;5091634;27;20072;-66
2021/11/29 06:52:40;;;;;;;20.88;8.82;;;;;;;;;;5089310;27;20083;-66
2021/11/29 06:55:08;;;;;;;17.92;7.95;;;;;;;;;;5089270;27;20106;-66
2021/11/29 06:57:36;;;;;;;17.55;8.43;;;;;;;;;;5089292;28;20063;-66
2021/11/29 07:00:04;;;;;;;14.38;7.50;;;;;;;;;;5090939;27;20147;-66
2021/11/29 07:02:30;;;;;;;14.30;7.05;;;;;;;;;;5089739;27;20052;-66
2021/11/29 07:04:57;;;;;;;15.80;7.72;;;;;;;;;;5089694;27;20155;-66
2021/11/29 07:07:24;;;;;;;17.65;7.78;;;;;;;;;;5089836;27;20040;-66
2021/11/29 07:09:50;;;;;;;13.02;7.25;;;;;;;;;;5089681;27;21183;-66
2021/11/29 07:12:18;;;;;;;13.88;7.55;;;;;;;;;;5090023;28;20060;-66
2021/11/29 07:14:45;;;;;;;20.55;7.50;;;;;;;;;;5089097;28;20086;-66
2021/11/29 07:17:12;;;;;;;14.18;7.43;;;;;;;;;;5088894;28;20079;-66
2021/11/29 07:19:39;;;;;;;14.48;8.60;;;;;;;;;;5089627;27;20090;-66
2021/11/29 07:22:06;;;;;;;14.88;7.20;;;;;;;;;;5088379;27;20136;-66
2021/11/29 07:24:33;;;;;;;15.40;7.97;;;;;;;;;;5090066;27;20040;-66
2021/11/29 07:27:00;;;;;;;13.23;7.55;;;;;;;;;;5087794;27;20097;-67
2021/11/29 07:29:26;;;;;;;15.35;7.35;;;;;;;;;;5090428;27;20129;-66
2021/11/29 07:31:54;;;;;;;13.75;6.57;;;;;;;;;;5090728;27;20555;-66
2021/11/29 07:34:21;;;;;;;12.18;7.10;;;;;;;;;;5088269;27;20583;-66
2021/11/29 07:36:47;;;;;;;15.68;8.43;;;;;;;;;;5089087;28;20048;-66
2021/11/29 07:39:14;;;;;;;16.55;8.43;;;;;;;;;;5090221;27;20980;-66
2021/11/29 07:41:40;;;;;;;16.13;8.32;;;;;;;;;;5089506;27;20056;-66
2021/11/29 07:44:07;;;;;;;18.73;8.48;;;;;;;;;;5087845;28;20145;-66
2021/11/29 07:46:34;;;;;;;16.20;8.57;;;;;;;;;;5088274;28;20040;-66
2021/11/29 07:49:02;;;;;;;14.90;8.68;;;;;;;;;;5088203;28;20048;-67
2021/11/29 07:51:28;;;;;;;14.48;8.52;;;;;;;;;;5089907;27;20089;-66
2021/11/29 07:53:55;;;;;;;13.77;8.00;;;;;;;;;;5087917;28;20052;-66
2021/11/29 07:56:22;;;;;;;16.02;8.18;;;;;;;;;;5090407;27;20048;-66
2021/11/29 07:58:48;;;;;;;15.63;7.82;;;;;;;;;;5089028;27;20047;-66
2021/11/29 08:01:16;;;;;;;15.00;8.32;;;;;;;;;;5088431;28;20056;-66
2021/11/29 08:03:42;;;;;;;14.85;7.55;;;;;;;;;;5088914;27;20141;-66
2021/11/29 08:06:10;;;;;;;11.93;7.47;;;;;;;;;;5088481;28;20071;-66
2021/11/29 08:08:36;;;;;;;15.73;8.48;;;;;;;;;;5090032;27;20071;-66
2021/11/29 08:11:03;;;;;;;17.70;8.27;;;;;;;;;;5090538;28;20148;-66
2021/11/29 08:13:30;;;;;;;14.68;8.50;;;;;;;;;;5088192;27;20462;-66
2021/11/29 08:15:57;;;;;;;18.85;9.15;;;;;;;;;;5093980;28;20524;-66
2021/11/29 08:18:23;;;;;;;14.50;8.00;;;;;;;;;;5088630;28;20056;-66
2021/11/29 08:20:50;;;;;;;18.42;9.70;;;;;;;;;;5091010;28;20329;-66
2021/11/29 08:23:18;;;;;;;15.32;8.93;;;;;;;;;;5087837;28;20460;-66
2021/11/29 08:25:45;;;;;;;20.13;9.45;;;;;;;;;;5088847;28;20076;-66
2021/11/29 08:28:12;;;;;;;18.83;9.02;;;;;;;;;;5086815;28;20513;-66
2021/11/29 08:30:39;;;;;;;18.15;8.93;;;;;;;;;;5090831;28;20478;-66
2021/11/29 08:33:06;;;;;;;19.70;9.68;;;;;;;;;;5089137;28;20098;-66
2021/11/29 08:35:33;;;;;;;15.73;9.05;;;;;;;;;;5090644;28;20482;-66
2021/11/29 08:37:59;;;;;;;19.30;10.60;;;;;;;;;;5089629;28;20105;-66
2021/11/29 08:40:29;;;;;;;17.13;9.98;;;;;;;;;;5090444;28;20052;-66
2021/11/29 08:42:57;;;;;;;22.42;11.32;;;;;;;;;;5087158;28;20051;-66
2021/11/29 08:45:24;;;;;;;20.13;11.10;;;;;;;;;;5088394;28;20464;-66
2021/11/29 08:47:51;;;;;;;22.05;11.40;;;;;;;;;;5089431;28;20052;-66
2021/11/29 08:50:17;;;;;;;20.05;10.40;;;;;;;;;;5091063;28;20075;-66
2021/11/29 08:52:44;;;;;;;20.48;11.45;;;;;;;;;;5089475;28;20075;-65
2021/11/29 08:55:11;;;;;;;19.98;11.32;;;;;;;;;;5088933;28;20043;-66
2021/11/29 08:57:41;;;;;;;19.15;11.15;;;;;;;;;;5088743;28;20093;-66
2021/11/29 09:00:11;;;;;;;20.85;11.75;;;;;;;;;;5089024;28;20115;-66
2021/11/29 09:02:39;;;;;;;20.25;11.77;;;;;;;;;;5088910;28;20056;-66
2021/11/29 09:05:07;;;;;;;20.67;12.20;;;;;;;;;;5088271;28;20052;-66
2021/11/29 09:07:34;;;;;;;17.88;10.80;;;;;;;;;;5089182;28;20109;-65
2021/11/29 09:10:01;;;;;;;22.02;11.50;;;;;;;;;;5089675;28;20495;-66
2021/11/29 09:12:28;;;;;;;21.73;12.23;;;;;;;;;;5087955;28;20048;-65
2021/11/29 09:14:56;;;;;;;22.83;11.68;;;;;;;;;;5087488;28;20140;-66
2021/11/29 09:17:25;;;;;;;21.35;10.82;;;;;;;;;;5070027;28;20097;-65
2021/11/29 09:19:52;;;;;;;19.05;10.98;;;;;;;;;;5089400;28;20416;-66
2021/11/29 09:22:18;;;;;;;25.45;12.32;;;;;;;;;;5087739;28;20068;-65
2021/11/29 09:24:45;;;;;;;21.77;11.30;;;;;;;;;;5087749;28;20048;-65
2021/11/29 09:27:11;;;;;;;27.77;14.27;;;;;;;;;;5086874;28;20076;-65
2021/11/29 09:29:38;;;;;;;21.65;11.73;;;;;;;;;;5088731;28;20052;-66
2021/11/29 09:32:07;;;;;;;23.50;12.32;;;;;;;;;;5087150;28;20052;-65
2021/11/29 09:34:33;;;;;;;24.30;12.70;;;;;;;;;;5087982;28;20101;-66
2021/11/29 09:37:00;;;;;;;29.05;13.70;;;;;;;;;;5092873;27;20121;-65
2021/11/29 09:39:26;;;;;;;25.67;13.50;;;;;;;;;;5091680;27;20052;-65
2021/11/29 09:41:53;;;;;;;30.52;15.20;;;;;;;;;;5091470;27;20063;-65
2021/11/29 09:44:20;;;;;;;25.58;14.25;;;;;;;;;;5092082;27;20051;-65
2021/11/29 09:46:46;;;;;;;29.27;14.38;;;;;;;;;;5092024;28;20044;-65
2021/11/29 09:49:14;;;;;;;21.70;12.43;;;;;;;;;;5091769;27;20494;-66
2021/11/29 09:51:41;;;;;;;26.55;13.95;;;;;;;;;;5094197;27;20043;-66
2021/11/29 09:54:09;;;;;;;24.63;13.25;;;;;;;;;;5091661;28;20052;-66
2021/11/29 09:56:36;;;;;;;26.02;13.70;;;;;;;;;;5091839;27;20052;-66
2021/11/29 09:59:03;;;;;;;26.80;15.27;;;;;;;;;;5091142;27;20112;-66
2021/11/29 10:01:29;;;;;;;30.60;14.85;;;;;;;;;;5092446;27;20068;-66
2021/11/29 10:03:56;;;;;;;28.58;13.02;;;;;;;;;;5090267;27;20512;-66
2021/11/29 10:06:24;;;;;;;31.30;15.07;;;;;;;;;;5090287;27;20048;-66
2021/11/29 10:08:52;;;;;;;25.73;12.82;;;;;;;;;;5090929;27;20088;-66
2021/11/29 10:11:19;;;;;;;27.73;13.68;;;;;;;;;;5091921;27;20565;-66
2021/11/29 10:13:49;;;;;;;27.33;13.73;;;;;;;;;;5091089;27;20052;-67
2021/11/29 10:16:29;;;;;;;24.88;12.40;;;;;;;;;;5091809;27;20080;-67
2021/11/29 10:18:56;;;;;;;25.48;13.02;;;;;;;;;;5073700;28;20055;-67
2021/11/29 10:21:24;;;;;;;23.85;12.70;;;;;;;;;;5092323;27;20071;-66
2021/11/29 10:23:53;;;;;;;26.65;13.30;;;;;;;;;;5091666;27;20105;-67
2021/11/29 10:26:23;;;;;;;23.50;12.25;;;;;;;;;;5090321;27;20040;-66
2021/11/29 10:28:55;;;;;;;25.05;11.82;;;;;;;;;;5091663;27;20039;-66
2021/11/29 10:31:23;;;;;;;23.40;12.45;;;;;;;;;;5090942;27;20040;-66
2021/11/29 10:33:53;;;;;;;22.50;12.50;;;;;;;;;;5089301;27;20506;-66
2021/11/29 10:36:20;;;;;;;23.17;11.55;;;;;;;;;;5089541;27;20079;-66
2021/11/29 10:38:51;;;;;;;21.85;11.63;;;;;;;;;;5090093;28;20040;-66
2021/11/29 10:41:24;;;;;;;25.23;12.68;;;;;;;;;;5092312;27;20052;-66
2021/11/29 10:43:51;;;;;;;21.13;10.38;;;;;;;;;;5091567;28;20101;-66
2021/11/29 10:46:23;;;;;;;19.35;9.25;;;;;;;;;;5090248;28;20048;-66
2021/11/29 10:48:50;;;;;;;18.73;10.00;;;;;;;;;;5075605;27;20052;-66
2021/11/29 10:51:19;;;;;;;19.63;10.05;;;;;;;;;;5089788;27;20133;-66
2021/11/29 10:53:49;;;;;;;17.92;10.00;;;;;;;;;;5090064;28;20059;-66
2021/11/29 10:56:15;;;;;;;19.00;11.30;;;;;;;;;;5089887;27;20055;-66
2021/11/29 10:58:43;;;;;;;69.60;34.70;;;;;;;;;;5089895;27;20052;-66
2021/11/29 11:01:10;;;;;;;25.45;13.93;;;;;;;;;;5090756;27;20064;-66
2021/11/29 11:03:51;;;;;;;17.38;10.60;;;;;;;;;;5089235;27;20072;-66
2021/11/29 11:06:25;;;;;;;19.02;11.07;;;;;;;;;;5091411;28;20056;-66
2021/11/29 11:08:53;;;;;;;18.73;9.38;;;;;;;;;;5089697;27;20052;-66
2021/11/29 11:11:33;;;;;;;17.05;8.88;;;;;;;;;;5091039;27;20056;-66
2021/11/29 11:14:02;;;;;;;18.08;9.18;;;;;;;;;;5088951;27;20097;-66
2021/11/29 11:16:44;;;;;;;18.88;9.07;;;;;;;;;;5090424;27;20079;-66
2021/11/29 11:19:12;;;;;;;15.43;7.85;;;;;;;;;;5090684;27;20498;-66
2021/11/29 11:21:38;;;;;;;14.00;7.93;;;;;;;;;;5090226;27;20051;-66
2021/11/29 11:24:24;;;;;;;14.43;8.00;;;;;;;;;;5088684;28;20083;-66
2021/11/29 11:26:56;;;;;;;16.27;7.50;;;;;;;;;;5089919;27;20056;-66
2021/11/29 11:29:46;;;;;;;15.40;7.35;;;;;;;;;;5092317;27;20055;-66
2021/11/29 11:32:32;;;;;;;13.95;7.60;;;;;;;;;;5089062;27;20472;-66
2021/11/29 11:35:02;;;;;;;16.58;7.70;;;;;;;;;;5088800;27;20058;-66
2021/11/29 11:37:32;;;;;;;14.20;7.32;;;;;;;;;;5093531;28;20047;-66
2021/11/29 11:40:01;;;;;;;14.50;7.63;;;;;;;;;;5092953;27;20052;-66
2021/11/29 11:42:28;;;;;;;13.68;7.20;;;;;;;;;;5089729;28;20109;-66
2021/11/29 11:44:56;;;;;;;14.05;7.07;;;;;;;;;;5088807;27;20108;-66
2021/11/29 11:47:22;;;;;;;13.48;6.93;;;;;;;;;;5090854;27;20097;-66
2021/11/29 11:49:49;;;;;;;17.85;7.50;;;;;;;;;;5090698;27;20055;-66
2021/11/29 11:52:19;;;;;;;13.57;6.85;;;;;;;;;;5090252;28;20482;-66
2021/11/29 11:54:46;;;;;;;16.02;7.13;;;;;;;;;;5088984;27;20152;-66
2021/11/29 11:57:16;;;;;;;15.25;7.78;;;;;;;;;;5088696;28;20071;-66
2021/11/29 12:00:00;;;;;;;14.27;7.65;;;;;;;;;;5091357;27;20129;-66
2021/11/29 12:02:51;;;;;;;15.50;7.45;;;;;;;;;;5089751;28;20096;-66
2021/11/29 12:05:19;;;;;;;12.90;6.57;;;;;;;;;;5089474;27;20051;-66
2021/11/29 12:07:47;;;;;;;21.40;9.18;;;;;;;;;;5089870;28;20043;-67
2021/11/29 12:10:36;;;;;;;13.25;6.47;;;;;;;;;;5089030;27;20105;-67
2021/11/29 12:13:06;;;;;;;13.95;6.25;;;;;;;;;;5090362;28;20093;-67
2021/11/29 12:15:38;;;;;;;13.25;6.85;;;;;;;;;;5090754;28;20048;-67
2021/11/29 12:18:05;;;;;;;13.57;5.90;;;;;;;;;;5088718;28;20760;-67
2021/11/29 12:20:32;;;;;;;10.35;6.38;;;;;;;;;;5092217;28;20074;-66
2021/11/29 12:22:58;;;;;;;17.85;6.63;;;;;;;;;;5089549;28;20037;-67
2021/11/29 12:25:26;;;;;;;11.93;5.78;;;;;;;;;;5087588;28;20079;-67
2021/11/29 12:27:54;;;;;;;12.50;5.70;;;;;;;;;;5092596;28;20048;-67
2021/11/29 12:30:40;;;;;;;10.00;5.15;;;;;;;;;;5092215;28;20051;-67
2021/11/29 12:33:10;;;;;;;8.80;4.68;;;;;;;;;;5088787;28;20105;-66
2021/11/29 12:35:39;;;;;;;9.43;5.25;;;;;;;;;;5088305;28;20052;-67
2021/11/29 12:38:08;;;;;;;10.02;4.88;;;;;;;;;;5086808;28;20048;-66
2021/11/29 12:40:44;;;;;;;13.50;5.32;;;;;;;;;;5090610;28;20153;-66
2021/11/29 12:43:11;;;;;;;8.05;4.20;;;;;;;;;;5088891;28;20167;-66
2021/11/29 12:45:39;;;;;;;9.32;4.65;;;;;;;;;;5089753;28;20101;-67
2021/11/29 12:48:15;;;;;;;10.35;4.82;;;;;;;;;;5089662;28;20128;-66
2021/11/29 12:50:55;;;;;;;12.50;4.47;;;;;;;;;;5089787;28;20076;-66
2021/11/29 12:53:38;;;;;;;10.43;3.90;;;;;;;;;;5087773;28;20141;-66
2021/11/29 12:56:24;;;;;;;11.13;4.93;;;;;;;;;;5089303;28;20456;-66
2021/11/29 12:59:00;;;;;;;9.55;4.18;;;;;;;;;;5087500;28;21592;-66
2021/11/29 13:01:33;;;;;;;;;;;;;;;;;;5088978;28;20036;-66
2021/11/29 13:04:00;;;;;;;11.30;5.22;;;;;;;;;;5088972;28;19957;-66
2021/11/29 13:06:29;;;;;;;10.93;4.80;;;;;;;;;;5090350;28;20554;-66
2021/11/29 13:08:59;;;;;;;9.52;4.63;;;;;;;;;;5090765;28;20052;-66
2021/11/29 13:11:28;;;;;;;7.32;4.30;;;;;;;;;;5093869;27;20055;-66
2021/11/29 13:13:58;;;;;;;7.40;4.57;;;;;;;;;;5092955;27;20112;-66
2021/11/29 13:16:34;;;;;;;7.90;4.15;;;;;;;;;;5092679;27;20494;-66
2021/11/29 13:19:08;;;;;;;11.02;4.20;;;;;;;;;;5094777;27;20075;-66
2021/11/29 13:21:37;;;;;;;10.32;4.65;;;;;;;;;;5093234;27;20132;-66
2021/11/29 13:24:07;;;;;;;5.60;3.58;;;;;;;;;;5092148;27;20131;-66
2021/11/29 13:26:37;;;;;;;8.60;4.65;;;;;;;;;;5092996;27;20048;-66
2021/11/29 13:29:07;;;;;;;9.05;3.70;;;;;;;;;;5093628;27;20628;-66
2021/11/29 13:31:38;;;;;;;11.82;4.05;;;;;;;;;;5095690;27;20126;-66
2021/11/29 13:34:06;;;;;;;7.25;4.30;;;;;;;;;;5091389;27;20051;-66
2021/11/29 13:36:35;;;;;;;9.30;4.20;;;;;;;;;;5093502;27;20044;-66
2021/11/29 13:39:13;;;;;;;12.52;3.80;;;;;;;;;;5093794;27;20076;-66
2021/11/29 13:41:41;;;;;;;8.00;3.85;;;;;;;;;;5092588;27;20056;-66
2021/11/29 13:44:25;;;;;;;10.05;4.25;;;;;;;;;;5091162;27;20538;-66
2021/11/29 13:46:58;;;;;;;9.52;3.85;;;;;;;;;;5092332;27;20129;-66
2021/11/29 13:49:30;;;;;;;13.90;4.18;;;;;;;;;;5097541;27;20101;-66
2021/11/29 13:51:57;;;;;;;7.75;3.92;;;;;;;;;;5094736;27;20387;-65
2021/11/29 13:54:23;;;;;;;9.18;4.15;;;;;;;;;;5089646;27;20490;-66
2021/11/29 13:56:50;;;;;;;10.68;5.28;;;;;;;;;;5090744;27;20071;-66
2021/11/29 13:59:16;;;;;;;11.98;4.60;;;;;;;;;;5092393;27;20090;-66
2021/11/29 14:01:43;;;;;;;10.48;4.45;;;;;;;;;;5093373;27;20572;-66
2021/11/29 14:04:11;;;;;;;6.03;3.80;;;;;;;;;;5090683;27;20105;-66
2021/11/29 14:06:37;;;;;;;7.30;3.83;;;;;;;;;;5092124;27;20113;-66
2021/11/29 14:09:04;;;;;;;13.60;4.95;;;;;;;;;;5093173;27;20090;-66
2021/11/29 14:11:33;;;;;;;14.05;4.50;;;;;;;;;;5092439;27;20056;-66
2021/11/29 14:14:01;;;;;;;7.38;3.38;;;;;;;;;;5092563;27;20054;-66
2021/11/29 14:16:36;;;;;;;8.55;3.53;;;;;;;;;;5092701;27;20056;-66
2021/11/29 14:19:05;;;;;;;5.35;2.95;;;;;;;;;;5092697;27;20044;-66
2021/11/29 14:21:38;;;;;;;9.65;3.95;;;;;;;;;;5092464;27;20072;-66
2021/11/29 14:24:07;;;;;;;7.85;3.50;;;;;;;;;;5090146;27;20151;-66
2021/11/29 14:26:37;;;;;;;5.90;3.05;;;;;;;;;;5092697;27;20080;-66
2021/11/29 14:29:05;;;;;;;5.40;2.05;;;;;;;;;;5090125;27;20048;-66
2021/11/29 14:31:32;;;;;;;14.23;6.97;;;;;;;;;;5093763;27;20102;-66
2021/11/29 14:33:59;;;;;;;13.55;5.65;;;;;;;;;;5091992;27;20105;-66
2021/11/29 14:36:27;;;;;;;5.90;3.17;;;;;;;;;;5091361;27;20080;-66